createdAt,value
2024-03-10T00:00:53.301Z,8.00
2024-03-10T00:03:55.062Z,7.28
2024-03-10T00:06:56.607Z,7.53
2024-03-10T00:09:58.363Z,7.40
2024-03-10T00:12:59.953Z,7.17
2024-03-10T00:16:01.563Z,7.05
2024-03-10T00:19:04.832Z,7.38
2024-03-10T00:22:06.329Z,7.30
2024-03-10T00:25:08.827Z,7.40
2024-03-10T00:28:10.397Z,7.30
2024-03-10T00:31:11.996Z,7.15
2024-03-10T00:34:13.501Z,7.68
2024-03-10T00:37:16.038Z,7.60
2024-03-10T00:40:17.812Z,7.78
2024-03-10T00:43:19.420Z,7.03
2024-03-10T00:46:21.024Z,7.72
2024-03-10T00:49:23.514Z,7.80
2024-03-10T00:52:25.045Z,8.23
2024-03-10T00:55:27.652Z,7.80
2024-03-10T00:58:29.172Z,7.43
2024-03-10T01:01:30.769Z,7.60
2024-03-10T01:04:33.211Z,7.55
2024-03-10T01:07:34.750Z,7.75
2024-03-10T01:10:36.905Z,7.70
2024-03-10T01:13:39.092Z,8.23
2024-03-10T01:16:42.309Z,7.70
2024-03-10T01:19:45.360Z,7.85
2024-03-10T01:22:47.094Z,8.18
2024-03-10T01:25:48.805Z,8.02
2024-03-10T01:28:50.374Z,8.40
2024-03-10T01:31:51.996Z,8.50
2024-03-10T01:34:54.372Z,8.52
2024-03-10T01:37:56.023Z,8.95
2024-03-10T01:40:59.031Z,9.05
2024-03-10T01:44:00.817Z,8.90
2024-03-10T01:47:03.111Z,8.57
2024-03-10T01:50:07.270Z,9.27
2024-03-10T01:53:10.767Z,8.95
2024-03-10T01:56:12.852Z,8.82
2024-03-10T01:59:15.717Z,9.53
2024-03-10T02:02:19.320Z,8.85
2024-03-10T02:05:21.453Z,9.00
2024-03-10T02:08:23.206Z,9.15
2024-03-10T02:11:25.129Z,9.00
2024-03-10T02:14:26.837Z,8.90
2024-03-10T02:17:28.957Z,9.10
2024-03-10T02:20:33.287Z,10.18
2024-03-10T02:23:50.843Z,9.43
2024-03-10T02:26:53.036Z,9.60
2024-03-10T02:30:20.721Z,9.50
2024-03-10T02:33:41.504Z,9.02
2024-03-10T02:37:01.704Z,9.13
2024-03-10T02:40:22.074Z,9.40
2024-03-10T02:43:42.177Z,10.00
2024-03-10T02:47:03.702Z,9.03
2024-03-10T02:50:07.164Z,9.48
2024-03-10T02:53:11.254Z,9.05
2024-03-10T02:56:13.042Z,9.57
2024-03-10T02:59:14.759Z,9.30
2024-03-10T03:02:20.301Z,9.17
2024-03-10T03:05:22.928Z,9.55
2024-03-10T03:08:25.949Z,9.30
2024-03-10T03:11:27.712Z,9.32
2024-03-10T03:14:29.318Z,9.18
2024-03-10T03:17:32.148Z,9.40
2024-03-10T03:20:34.495Z,9.82
2024-03-10T03:23:36.143Z,9.38
2024-03-10T03:26:37.995Z,9.23
2024-03-10T03:29:39.591Z,9.40
2024-03-10T03:32:41.185Z,9.43
2024-03-10T03:35:42.753Z,9.68
2024-03-10T03:38:45.703Z,9.68
2024-03-10T03:41:47.290Z,9.75
2024-03-10T03:44:51.019Z,10.05
2024-03-10T03:47:52.732Z,9.83
2024-03-10T03:50:54.217Z,9.27
2024-03-10T03:53:55.752Z,9.73
2024-03-10T03:56:58.627Z,9.85
2024-03-10T04:00:01.208Z,9.02
2024-03-10T04:03:02.800Z,9.80
2024-03-10T04:06:06.905Z,9.77
2024-03-10T04:09:09.142Z,9.88
2024-03-10T04:12:10.819Z,9.82
2024-03-10T04:15:12.450Z,9.88
2024-03-10T04:18:14.808Z,9.73
2024-03-10T04:21:16.987Z,10.15
2024-03-10T04:24:19.394Z,9.77
2024-03-10T04:27:20.956Z,9.32
2024-03-10T04:30:23.376Z,9.60
2024-03-10T04:33:26.276Z,9.57
2024-03-10T04:36:30.350Z,9.45
2024-03-10T04:39:32.011Z,9.48
2024-03-10T04:42:35.583Z,9.45
2024-03-10T04:45:37.560Z,9.93
2024-03-10T04:48:39.085Z,9.63
2024-03-10T04:51:43.311Z,9.82
2024-03-10T04:54:46.862Z,9.73
2024-03-10T04:57:49.705Z,9.38
2024-03-10T05:00:51.413Z,9.93
2024-03-10T05:03:52.960Z,9.40
2024-03-10T05:06:54.463Z,10.35
2024-03-10T05:09:56.012Z,9.55
2024-03-10T05:12:57.532Z,9.52
2024-03-10T05:15:59.336Z,9.50
2024-03-10T05:19:00.974Z,10.00
2024-03-10T05:22:03.905Z,9.55
2024-03-10T05:25:06.327Z,9.35
2024-03-10T05:28:08.073Z,9.50
2024-03-10T05:31:27.427Z,9.90
2024-03-10T05:34:29.627Z,9.90
2024-03-10T05:37:31.148Z,9.65
2024-03-10T05:40:33.630Z,9.90
2024-03-10T05:43:35.205Z,10.20
2024-03-10T05:46:36.860Z,10.20
2024-03-10T05:49:38.400Z,10.20
2024-03-10T05:52:39.897Z,10.27
2024-03-10T05:55:41.498Z,10.25
2024-03-10T05:58:43.424Z,9.68
2024-03-10T06:01:46.373Z,10.93
2024-03-10T06:04:47.979Z,10.37
2024-03-10T06:07:49.657Z,10.75
2024-03-10T06:10:51.434Z,10.40
2024-03-10T06:13:53.207Z,10.65
2024-03-10T06:16:56.559Z,10.70
2024-03-10T06:20:17.275Z,10.97
2024-03-10T06:23:53.826Z,10.93
2024-03-10T06:26:56.328Z,11.02
2024-03-10T06:29:57.830Z,10.73
2024-03-10T06:32:59.459Z,11.15
2024-03-10T06:36:00.972Z,11.07
2024-03-10T06:39:02.445Z,10.65
2024-03-10T06:42:04.331Z,10.73
2024-03-10T06:45:07.012Z,11.15
2024-03-10T06:48:08.657Z,11.38
2024-03-10T06:51:10.873Z,11.00
2024-03-10T06:54:13.243Z,11.52
2024-03-10T06:57:14.718Z,11.48
2024-03-10T07:00:16.816Z,12.07
2024-03-10T07:03:19.384Z,11.85
2024-03-10T07:06:24.130Z,11.60
2024-03-10T07:09:26.348Z,12.32
2024-03-10T07:12:29.956Z,11.18
2024-03-10T07:15:34.469Z,11.73
2024-03-10T07:18:38.209Z,12.60
2024-03-10T07:21:39.756Z,12.17
2024-03-10T07:24:41.253Z,12.00
2024-03-10T07:27:42.856Z,12.68
2024-03-10T07:30:44.420Z,12.68
2024-03-10T07:33:45.970Z,12.18
2024-03-10T07:36:47.676Z,12.30
2024-03-10T07:39:49.248Z,12.48
2024-03-10T07:42:51.199Z,12.32
2024-03-10T07:45:52.800Z,12.48
2024-03-10T07:48:56.025Z,12.73
2024-03-10T07:51:57.608Z,12.73
2024-03-10T07:54:59.098Z,13.35
2024-03-10T07:58:00.847Z,13.05
2024-03-10T08:01:02.886Z,12.88
2024-03-10T08:04:04.732Z,12.90
2024-03-10T08:07:09.024Z,12.33
2024-03-10T08:10:13.822Z,13.18
2024-03-10T08:13:16.145Z,13.13
2024-03-10T08:16:17.679Z,14.10
2024-03-10T08:19:19.378Z,13.77
2024-03-10T08:22:21.867Z,13.30
2024-03-10T08:25:23.830Z,13.65
2024-03-10T08:28:26.265Z,14.63
2024-03-10T08:31:27.854Z,13.73
2024-03-10T08:34:29.370Z,14.05
2024-03-10T08:37:30.904Z,13.27
2024-03-10T08:40:36.261Z,13.45
2024-03-10T08:43:37.842Z,13.55
2024-03-10T08:46:39.415Z,14.23
2024-03-10T08:49:41.035Z,14.15
2024-03-10T08:52:44.299Z,13.60
2024-03-10T08:55:48.701Z,14.35
2024-03-10T08:58:50.253Z,14.00
2024-03-10T09:01:52.434Z,14.50
2024-03-10T09:04:54.008Z,14.02
2024-03-10T09:07:56.681Z,14.03
2024-03-10T09:11:04.447Z,14.50
2024-03-10T09:14:09.096Z,14.25
2024-03-10T09:17:13.254Z,14.85
2024-03-10T09:20:16.608Z,15.23
2024-03-10T09:23:18.359Z,14.27
2024-03-10T09:26:21.573Z,14.75
2024-03-10T09:29:30.879Z,14.35
2024-03-10T09:32:32.702Z,15.55
2024-03-10T09:35:37.307Z,16.23
2024-03-10T09:38:39.273Z,15.37
2024-03-10T09:41:43.209Z,15.13
2024-03-10T09:44:46.208Z,15.10
2024-03-10T09:47:51.304Z,15.07
2024-03-10T09:50:53.826Z,14.77
2024-03-10T09:53:55.326Z,14.97
2024-03-10T09:56:57.082Z,14.48
2024-03-10T10:00:01.420Z,14.95
2024-03-10T10:03:04.398Z,14.95
2024-03-10T10:06:09.542Z,14.60
2024-03-10T10:09:11.813Z,13.57
2024-03-10T10:12:14.326Z,13.70
2024-03-10T10:15:19.024Z,14.07
2024-03-10T10:18:22.469Z,13.45
2024-03-10T10:21:27.925Z,12.93
2024-03-10T10:24:29.450Z,13.00
2024-03-10T10:27:32.268Z,13.65
2024-03-10T10:30:33.776Z,13.70
2024-03-10T10:33:35.846Z,13.30
2024-03-10T10:36:38.435Z,13.32
2024-03-10T10:39:40.450Z,13.17
2024-03-10T10:42:53.758Z,13.13
2024-03-10T10:46:02.412Z,12.35
2024-03-10T10:49:06.316Z,13.45
2024-03-10T10:52:12.984Z,12.07
2024-03-10T10:55:16.717Z,13.10
2024-03-10T10:58:20.187Z,13.18
2024-03-10T11:01:22.597Z,12.80
2024-03-10T11:04:28.106Z,13.07
2024-03-10T11:07:29.772Z,13.32
2024-03-10T11:10:44.164Z,13.13
2024-03-10T11:13:47.752Z,12.48
2024-03-10T11:16:49.460Z,13.25
2024-03-10T11:19:53.333Z,12.40
2024-03-10T11:22:56.022Z,12.38
2024-03-10T11:26:02.926Z,11.03
2024-03-10T11:29:05.329Z,10.90
2024-03-10T11:32:27.439Z,10.50
2024-03-10T11:35:30.272Z,10.73
2024-03-10T11:38:32.602Z,10.48
2024-03-10T11:41:34.689Z,11.20
2024-03-10T11:44:37.161Z,11.73
2024-03-10T11:47:39.303Z,11.40
2024-03-10T11:50:42.176Z,10.95
2024-03-10T11:53:43.784Z,11.15
2024-03-10T11:56:46.614Z,11.10
2024-03-10T11:59:50.185Z,10.98
2024-03-10T12:02:52.672Z,11.10
2024-03-10T12:05:54.432Z,11.55
2024-03-10T12:08:56.024Z,11.00
2024-03-10T12:12:11.459Z,11.13
2024-03-10T12:15:21.052Z,11.15
2024-03-10T12:18:25.885Z,11.07
2024-03-10T12:21:30.559Z,11.50
2024-03-10T12:24:34.008Z,11.18
2024-03-10T12:27:37.138Z,11.33
2024-03-10T12:30:38.766Z,11.05
2024-03-10T12:33:45.598Z,11.48
2024-03-10T12:36:47.061Z,10.60
2024-03-10T12:39:56.555Z,10.80
2024-03-10T12:42:58.219Z,10.60
2024-03-10T12:46:02.571Z,10.60
2024-03-10T12:49:04.320Z,11.07
2024-03-10T12:52:06.326Z,10.77
2024-03-10T12:55:09.264Z,11.10
2024-03-10T12:58:10.952Z,10.80
2024-03-10T13:01:13.025Z,10.68
2024-03-10T13:04:15.034Z,11.05
2024-03-10T13:07:17.260Z,10.70
2024-03-10T13:10:21.557Z,10.63
2024-03-10T13:13:24.589Z,11.50
2024-03-10T13:16:26.665Z,10.70
2024-03-10T13:19:29.716Z,10.32
2024-03-10T13:22:31.238Z,9.75
2024-03-10T13:25:33.339Z,9.95
2024-03-10T13:28:34.892Z,10.10
2024-03-10T13:31:37.076Z,9.68
2024-03-10T13:34:42.228Z,10.50
2024-03-10T13:37:47.557Z,8.85
2024-03-10T13:40:52.147Z,9.88
2024-03-10T13:43:54.217Z,9.30
2024-03-10T13:46:56.096Z,10.82
2024-03-10T13:49:57.639Z,9.82
2024-03-10T13:52:59.599Z,10.02
2024-03-10T13:56:02.357Z,9.50
2024-03-10T13:59:05.224Z,9.40
2024-03-10T14:02:08.239Z,9.43
2024-03-10T14:05:15.445Z,9.23
2024-03-10T14:08:19.150Z,9.43
2024-03-10T14:11:20.898Z,9.55
2024-03-10T14:14:22.655Z,10.07
2024-03-10T14:17:24.598Z,10.48
2024-03-10T14:20:27.561Z,9.73
2024-03-10T14:23:32.292Z,9.20
2024-03-10T14:26:33.920Z,9.38
2024-03-10T14:29:39.603Z,9.70
2024-03-10T14:32:42.019Z,9.85
2024-03-10T14:35:43.894Z,9.23
2024-03-10T14:38:46.362Z,9.70
2024-03-10T14:41:47.998Z,8.77
2024-03-10T14:44:49.572Z,8.90
2024-03-10T14:47:52.424Z,8.05
2024-03-10T14:50:54.919Z,8.25
2024-03-10T14:53:57.331Z,7.57
2024-03-10T14:56:58.880Z,7.55
2024-03-10T15:00:05.145Z,8.30
2024-03-10T15:03:09.511Z,8.25
2024-03-10T15:06:12.054Z,7.28
2024-03-10T15:09:16.092Z,7.80
2024-03-10T15:12:17.835Z,7.65
2024-03-10T15:15:19.629Z,7.47
2024-03-10T15:18:23.302Z,7.63
2024-03-10T15:21:24.869Z,7.75
2024-03-10T15:24:28.089Z,7.60
2024-03-10T15:27:30.013Z,7.18
2024-03-10T15:30:31.730Z,7.73
2024-03-10T15:33:33.410Z,7.82
2024-03-10T15:36:35.399Z,7.20
2024-03-10T15:39:37.101Z,7.40
2024-03-10T15:42:39.352Z,7.78
2024-03-10T15:45:42.801Z,8.03
2024-03-10T15:48:46.612Z,8.13
2024-03-10T15:51:48.218Z,7.90
2024-03-10T15:54:49.774Z,8.00
2024-03-10T15:57:53.963Z,8.63
2024-03-10T16:00:55.551Z,8.07
2024-03-10T16:04:02.218Z,8.73
2024-03-10T16:07:03.823Z,8.65
2024-03-10T16:10:09.321Z,9.32
2024-03-10T16:13:16.946Z,10.05
2024-03-10T16:16:21.329Z,9.10
2024-03-10T16:19:24.587Z,9.63
2024-03-10T16:22:27.016Z,9.65
2024-03-10T16:25:28.532Z,10.13
2024-03-10T16:28:30.138Z,10.05
2024-03-10T16:31:31.744Z,8.97
2024-03-10T16:34:33.288Z,9.25
2024-03-10T16:37:37.731Z,9.52
2024-03-10T16:40:40.259Z,9.32
2024-03-10T16:43:41.971Z,9.15
2024-03-10T16:46:43.555Z,9.33
2024-03-10T16:49:50.693Z,9.73
2024-03-10T16:52:53.622Z,9.32
2024-03-10T16:55:56.037Z,9.95
2024-03-10T16:58:57.708Z,9.25
2024-03-10T17:01:59.382Z,9.83
2024-03-10T17:05:02.072Z,8.98
2024-03-10T17:08:05.267Z,9.55
2024-03-10T17:11:07.456Z,9.10
2024-03-10T17:14:09.663Z,9.77
2024-03-10T17:17:13.935Z,9.73
2024-03-10T17:20:18.196Z,9.60
2024-03-10T17:23:23.002Z,9.90
2024-03-10T17:26:24.798Z,9.75
2024-03-10T17:29:28.764Z,9.40
2024-03-10T17:32:30.519Z,9.93
2024-03-10T17:35:32.242Z,9.57
2024-03-10T17:38:35.171Z,9.48
2024-03-10T17:41:39.996Z,10.25
2024-03-10T17:44:45.845Z,10.82
2024-03-10T17:47:47.605Z,9.57
2024-03-10T17:50:49.288Z,10.07
2024-03-10T17:53:50.911Z,10.23
2024-03-10T17:56:52.437Z,10.60
2024-03-10T17:59:54.219Z,10.48
2024-03-10T18:02:56.037Z,10.00
2024-03-10T18:05:57.625Z,10.15
2024-03-10T18:08:59.386Z,10.23
2024-03-10T18:12:01.760Z,10.52
2024-03-10T18:15:03.705Z,10.65
2024-03-10T18:18:05.643Z,10.37
2024-03-10T18:21:08.318Z,10.93
2024-03-10T18:24:12.733Z,10.45
2024-03-10T18:27:14.531Z,10.93
2024-03-10T18:30:16.891Z,10.43
2024-03-10T18:33:18.783Z,10.70
2024-03-10T18:36:20.568Z,10.65
2024-03-10T18:39:24.713Z,11.05
2024-03-10T18:42:26.327Z,10.50
2024-03-10T18:45:29.008Z,11.38
2024-03-10T18:48:31.136Z,10.90
2024-03-10T18:51:32.971Z,10.80
2024-03-10T18:54:34.988Z,11.48
2024-03-10T18:57:36.794Z,11.75
2024-03-10T19:00:39.024Z,11.52
2024-03-10T19:03:45.309Z,11.23
2024-03-10T19:06:51.098Z,11.95
2024-03-10T19:09:52.982Z,11.70
2024-03-10T19:12:54.525Z,11.88
2024-03-10T19:15:56.130Z,11.63
2024-03-10T19:18:57.617Z,11.40
2024-03-10T19:21:59.277Z,12.48
2024-03-10T19:25:01.780Z,12.88
2024-03-10T19:28:03.544Z,12.40
2024-03-10T19:31:08.058Z,14.70
2024-03-10T19:34:10.232Z,13.23
2024-03-10T19:37:11.900Z,19.10
2024-03-10T19:40:19.807Z,12.98
2024-03-10T19:43:21.535Z,12.30
2024-03-10T19:46:23.144Z,13.90
2024-03-10T19:49:24.733Z,12.63
2024-03-10T19:52:26.282Z,12.60
2024-03-10T19:55:29.256Z,12.00
2024-03-10T19:58:32.038Z,11.50
2024-03-10T20:01:34.600Z,11.98
2024-03-10T20:04:37.456Z,11.37
2024-03-10T20:07:39.042Z,11.75
2024-03-10T20:10:41.202Z,12.43
2024-03-10T20:13:42.793Z,11.77
2024-03-10T20:16:45.805Z,12.55
2024-03-10T20:19:47.389Z,12.43
2024-03-10T20:22:49.793Z,18.70
2024-03-10T20:25:51.315Z,16.90
2024-03-10T20:28:52.866Z,12.40
2024-03-10T20:31:54.965Z,13.65
2024-03-10T20:34:56.474Z,11.97
2024-03-10T20:37:58.063Z,11.77
2024-03-10T20:40:59.684Z,12.60
2024-03-10T20:44:01.363Z,12.75
2024-03-10T20:47:03.691Z,12.95
2024-03-10T20:50:07.341Z,11.20
2024-03-10T20:53:09.417Z,11.30
2024-03-10T20:56:12.336Z,11.40
2024-03-10T20:59:14.066Z,11.27
2024-03-10T21:02:15.713Z,11.52
2024-03-10T21:05:18.410Z,11.30
2024-03-10T21:08:20.799Z,11.55
2024-03-10T21:11:22.740Z,11.88
2024-03-10T21:14:26.437Z,11.20
2024-03-10T21:17:31.493Z,11.57
2024-03-10T21:20:33.251Z,10.43
2024-03-10T21:23:34.942Z,12.27
2024-03-10T21:26:36.586Z,11.05
2024-03-10T21:29:38.444Z,11.63
2024-03-10T21:32:41.018Z,11.70
2024-03-10T21:35:42.702Z,11.63
2024-03-10T21:38:47.573Z,12.13
2024-03-10T21:41:49.461Z,12.55
2024-03-10T21:44:52.212Z,12.48
2024-03-10T21:47:54.180Z,12.70
2024-03-10T21:50:56.283Z,12.30
2024-03-10T21:53:57.813Z,12.30
2024-03-10T21:57:00.764Z,12.25
2024-03-10T22:00:12.113Z,12.02
2024-03-10T22:03:14.478Z,12.00
2024-03-10T22:06:16.552Z,11.43
2024-03-10T22:09:18.087Z,11.70
2024-03-10T22:12:19.649Z,12.27
2024-03-10T22:15:23.378Z,12.45
2024-03-10T22:18:27.749Z,12.50
2024-03-10T22:21:29.455Z,11.53
2024-03-10T22:24:31.068Z,10.80
2024-03-10T22:27:32.943Z,10.88
2024-03-10T22:30:34.860Z,11.27
2024-03-10T22:33:36.609Z,10.40
2024-03-10T22:36:38.272Z,10.63
2024-03-10T22:39:39.857Z,10.80
2024-03-10T22:42:42.501Z,10.80
2024-03-10T22:45:44.105Z,10.68
2024-03-10T22:48:45.675Z,10.95
2024-03-10T22:51:47.296Z,10.83
2024-03-10T22:54:48.793Z,11.43
2024-03-10T22:57:50.558Z,11.43
2024-03-10T23:00:55.732Z,12.40
2024-03-10T23:03:57.427Z,12.85
2024-03-10T23:06:59.167Z,12.67
2024-03-10T23:10:01.740Z,13.15
2024-03-10T23:13:05.392Z,12.95
2024-03-10T23:16:08.335Z,12.30
2024-03-10T23:19:10.903Z,12.65
2024-03-10T23:22:12.709Z,11.10
2024-03-10T23:25:14.468Z,11.05
2024-03-10T23:28:17.194Z,10.95
2024-03-10T23:31:18.749Z,10.73
2024-03-10T23:34:20.856Z,10.75
2024-03-10T23:37:23.280Z,10.93
2024-03-10T23:40:25.596Z,11.43
2024-03-10T23:43:27.778Z,10.93
2024-03-10T23:46:29.427Z,10.85
2024-03-10T23:49:33.582Z,10.48
2024-03-10T23:52:36.571Z,10.47
2024-03-10T23:55:42.837Z,10.90
2024-03-10T23:58:44.454Z,10.38
